Latest Coastal Weather Observations for Browse Island

IDD60701

Issued at 12:35 pm CST Monday 24 November 2014 (issued every 10 minutes, with the page automatically refreshed every 10 minutes)

About coastal observations | Map of coastal stations | Coastal observations for NT | Marine services | Other Formats
Station Details ID: 200784 Name: BROWSE ISLAND Lat: -14.11 Lon: 123.55 Height: 3.7 m
Data from the previous 72 hours. | See also: Recent months for locations in Northern Territory
Date/Time
CST
Temp

°C
Wind Pressure Rain
since 9am
mm
Weather Cloud Vis
km
Sea
Height
m
Swell
Dir
 
Speed
knots
Gust
knots
hPa Trend Height
m
Period
s
Dir
24/12:30pm 29.8 S 9 11 1009.9 - - - - - - - - -
24/12:00pm 30.5 S 8 10 1010.3 - - - - - - - - -
24/11:30am 30.0 S 8 9 1010.6 - - - - - - - - -
24/11:00am 30.1 S 8 10 1010.7 - - - - - - - - -
24/10:30am 29.7 S 9 11 1010.9 - - - - - - - - -
24/10:00am 29.6 S 9 10 1011.1 - - - - - - - - -
24/09:30am 29.7 S 9 11 1011.1 - - - - - - - - -
24/09:00am 29.6 S 8 10 1011.0 - - - - - - - - -
24/08:30am 29.8 SSW 6 7 1011.0 - - - - - - - - -
24/08:00am 29.7 SW 5 7 1010.8 - - - - - - - - -
24/07:30am 29.6 SW 6 7 1010.5 - - - - - - - - -
24/07:00am 29.6 SSW 6 8 1010.2 - - - - - - - - -
24/06:30am 29.5 SSW 8 10 1009.9 - - - - - - - - -
24/06:00am 29.6 SSW 7 9 1009.7 - - - - - - - - -
24/05:30am 29.7 SSW 8 9 1009.6 - - - - - - - - -
24/05:00am 29.7 SSW 5 6 1009.3 - - - - - - - - -
24/04:30am 29.8 W 3 4 1009.1 - - - - - - - - -
24/04:00am 29.7 WNW 3 5 1008.8 - - - - - - - - -
24/03:30am 29.7 CALM 0 0 1008.9 - - - - - - - - -
24/03:00am 29.7 CALM 0 0 1008.9 - - - - - - - - -
24/02:30am 29.6 CALM 0 0 1009.3 - - - - - - - - -
24/02:00am 29.6 CALM 0 0 1009.7 - - - - - - - - -
24/01:30am 29.8 ESE 2 4 1009.9 - - - - - - - - -
24/01:00am 29.9 CALM 0 0 1010.2 - - - - - - - - -
24/12:30am 30.2 WSW 2 4 1010.9 - - - - - - - - -
24/12:00am 30.4 SSW 3 5 1010.9 - - - - - - - - -
 
Date/Time
CST
Temp

°C
Wind Pressure Rain
since 9am
mm
Weather Cloud Vis
km
Sea
Height
m
Swell
Dir
 
Speed
knots
Gust
knots
hPa Trend Height
m
Period
s
Dir
23/11:30pm 30.3 WSW 5 6 1011.0 - - - - - - - - -
23/11:00pm 30.3 W 4 5 1010.7 - - - - - - - - -
23/10:30pm 30.3 WNW 5 7 1010.3 - - - - - - - - -
23/10:00pm 30.0 NNW 3 4 1010.0 - - - - - - - - -
23/09:30pm 29.9 NW 3 4 1009.5 - - - - - - - - -
23/09:00pm 30.0 NW 2 3 1009.2 - - - - - - - - -
23/08:30pm 30.0 CALM 0 0 1009.0 - - - - - - - - -
23/08:00pm 30.0 CALM 0 0 1008.3 - - - - - - - - -
23/07:30pm 30.1 NW 4 4 1008.2 - - - - - - - - -
23/07:00pm 30.5 NW 3 4 1008.1 - - - - - - - - -
23/06:30pm 31.3 SW 2 4 1007.7 - - - - - - - - -
23/06:00pm 30.8 SSW 3 5 1007.6 - - - - - - - - -
23/05:30pm 30.9 W 5 7 1007.4 - - - - - - - - -
23/05:00pm 31.0 WSW 5 6 1007.4 - - - - - - - - -
23/04:30pm 31.0 WSW 5 7 1007.7 - - - - - - - - -
23/04:00pm 30.7 SW 5 7 1007.9 - - - - - - - - -
23/03:30pm 31.0 SW 5 7 1008.2 - - - - - - - - -
23/03:00pm 31.1 SSW 4 5 1008.6 - - - - - - - - -
23/02:30pm 31.2 WSW 5 6 1008.9 - - - - - - - - -
23/02:00pm 31.6 SSW 4 5 1009.0 - - - - - - - - -
23/01:30pm 31.3 SSW 4 5 1009.4 - - - - - - - - -
23/01:00pm 31.3 SSW 3 5 1009.7 - - - - - - - - -
23/12:30pm 31.4 W 3 5 1010.0 - - - - - - - - -
23/12:00pm 31.4 SW 4 5 1010.4 - - - - - - - - -
23/11:30am 31.0 W 4 5 1010.5 - - - - - - - - -
23/11:00am 30.7 W 4 5 1010.4 - - - - - - - - -
23/10:30am 30.7 SSW 4 4 1010.5 - - - - - - - - -
23/10:00am 30.2 S 4 6 1010.6 - - - - - - - - -
23/09:30am 30.6 S 4 5 1010.6 - - - - - - - - -
23/09:00am 30.2 SSE 4 6 1010.4 - - - - - - - - -
23/08:30am 30.2 SE 5 7 1010.5 - - - - - - - - -
23/08:00am 29.8 SSE 6 8 1010.5 - - - - - - - - -
23/07:30am 29.6 SSE 5 6 1010.1 - - - - - - - - -
23/07:00am 29.4 S 4 5 1009.7 - - - - - - - - -
23/06:30am 29.5 S 3 4 1009.4 - - - - - - - - -
23/06:00am 29.6 SSW 4 4 1009.3 - - - - - - - - -
23/05:30am 29.7 WSW 4 4 1009.1 - - - - - - - - -
23/05:00am 29.8 SW 4 4 1008.9 - - - - - - - - -
23/04:30am 29.7 SW 1 5 1008.8 - - - - - - - - -
23/04:00am 29.7 CALM 0 0 1009.0 - - - - - - - - -
23/03:30am 29.8 SE 1 3 1009.4 - - - - - - - - -
23/03:00am 29.6 CALM 0 0 1009.5 - - - - - - - - -
23/02:30am 30.0 CALM 0 2 1009.6 - - - - - - - - -
23/02:00am 30.2 NW 4 4 1009.9 - - - - - - - - -
23/01:30am 30.3 NW 4 5 1010.3 - - - - - - - - -
23/01:00am 30.4 NW 3 4 1010.4 - - - - - - - - -
23/12:30am 30.5 WNW 4 5 1010.6 - - - - - - - - -
23/12:00am 30.5 W 5 6 1010.5 - - - - - - - - -
 
Date/Time
CST
Temp

°C
Wind Pressure Rain
since 9am
mm
Weather Cloud Vis
km
Sea
Height
m
Swell
Dir
 
Speed
knots
Gust
knots
hPa Trend Height
m
Period
s
Dir
22/11:30pm 30.4 W 5 6 1010.7 - - - - - - - - -
22/11:00pm 30.3 W 5 6 1010.7 - - - - - - - - -
22/10:30pm 30.4 W 6 7 1010.6 - - - - - - - - -
22/10:00pm 30.6 W 5 5 1010.8 - - - - - - - - -
22/09:30pm 30.6 W 5 6 1010.5 - - - - - - - - -
22/09:00pm 30.4 W 4 4 1010.6 - - - - - - - - -
22/08:30pm 30.7 W 5 6 1009.9 - - - - - - - - -
22/08:00pm 30.8 W 5 5 1009.4 - - - - - - - - -
22/07:30pm 30.9 W 4 5 1008.9 - - - - - - - - -
22/07:00pm 31.1 W 4 5 1008.5 - - - - - - - - -
22/06:30pm 31.3 W 5 6 1008.1 - - - - - - - - -
22/06:00pm 31.5 WSW 6 7 1008.0 - - - - - - - - -
22/05:30pm 31.8 WSW 5 7 1007.9 - - - - - - - - -
22/05:00pm 31.4 WSW 6 7 1008.0 - - - - - - - - -
22/04:30pm 31.5 WSW 5 7 1008.3 - - - - - - - - -
22/04:00pm 32.5 SW 5 6 1008.8 - - - - - - - - -
22/03:30pm 31.7 SW 5 7 1009.0 - - - - - - - - -
22/03:00pm 31.1 WSW 6 8 1009.0 - - - - - - - - -
22/02:30pm 31.1 WSW 6 7 1009.3 - - - - - - - - -
22/02:00pm 32.3 WSW 4 5 1009.8 - - - - - - - - -
22/01:30pm 31.6 WSW 4 6 1010.2 - - - - - - - - -
22/01:00pm 31.3 W 4 6 1010.4 - - - - - - - - -
22/12:30pm 31.4 WNW 4 5 1010.7 - - - - - - - - -
22/12:00pm 31.3 W 4 5 1011.1 - - - - - - - - -
22/11:30am 31.6 W 3 5 1011.3 - - - - - - - - -
22/11:00am 31.0 W 4 5 1011.3 - - - - - - - - -
22/10:30am 30.8 W 4 5 1011.4 - - - - - - - - -
22/10:00am 30.8 WNW 3 5 1011.2 - - - - - - - - -
22/09:30am 30.6 W 3 4 1011.1 - - - - - - - - -
22/09:00am 30.4 WNW 3 4 1010.8 - - - - - - - - -
22/08:30am 30.2 W 3 4 1010.6 - - - - - - - - -
22/08:00am 29.7 WSW 3 4 1010.2 - - - - - - - - -
22/07:30am 29.6 SW 4 5 1009.9 - - - - - - - - -
22/07:00am 29.5 WSW 6 7 1009.5 - - - - - - - - -
22/06:30am 29.4 WSW 5 6 1009.1 - - - - - - - - -
22/06:00am 29.3 SW 3 5 1008.9 - - - - - - - - -
22/05:30am 29.4 SW 4 5 1008.6 - - - - - - - - -
22/05:00am 29.5 SW 4 5 1008.5 - - - - - - - - -
22/04:30am 29.6 CALM 0 0 1008.4 - - - - - - - - -
22/04:00am 29.5 SW 1 3 1008.3 - - - - - - - - -
22/03:30am 29.5 SSW 5 6 1008.2 - - - - - - - - -
22/03:00am 29.6 SSW 4 4 1008.3 - - - - - - - - -
22/02:30am 29.6 W 3 4 1008.2 - - - - - - - - -
22/02:00am 29.7 S 4 5 1008.5 - - - - - - - - -
22/01:30am 29.7 S 5 6 1009.1 - - - - - - - - -
22/01:00am 30.1 S 6 7 1009.3 - - - - - - - - -
22/12:30am 30.2 S 8 9 1009.6 - - - - - - - - -
22/12:00am 30.2 S 7 9 1009.9 - - - - - - - - -
 
Date/Time
CST
Temp

°C
Wind Pressure Rain
since 9am
mm
Weather Cloud Vis
km
Sea
Height
m
Swell
Dir
 
Speed
knots
Gust
knots
hPa Trend Height
m
Period
s
Dir
21/11:30pm 30.2 S 7 8 1009.9 - - - - - - - - -
21/11:00pm 30.4 SSW 6 7 1010.0 - - - - - - - - -
21/10:30pm 30.4 SSW 8 9 1010.0 - - - - - - - - -
21/10:00pm 30.5 SSW 8 9 1010.1 - - - - - - - - -
21/09:30pm 30.6 SW 8 11 1010.1 - - - - - - - - -
21/09:00pm 30.5 SW 9 11 1009.6 - - - - - - - - -
21/08:30pm 30.5 SW 10 12 1009.1 - - - - - - - - -
21/08:00pm 30.7 WSW 10 12 1008.6 - - - - - - - - -
21/07:30pm 30.7 SW 11 13 1008.2 - - - - - - - - -
21/07:00pm 30.8 SW 11 13 1008.1 - - - - - - - - -
21/06:30pm 31.0 WSW 11 12 1007.8 - - - - - - - - -
21/06:00pm 31.1 WSW 10 11 1007.5 - - - - - - - - -
21/05:30pm 31.1 SW 11 12 1007.4 - - - - - - - - -
21/05:00pm 31.0 SW 11 12 1007.4 - - - - - - - - -
21/04:30pm 31.1 SW 11 12 1007.7 - - - - - - - - -
21/04:00pm 30.9 SW 10 12 1008.0 - - - - - - - - -
21/03:30pm 30.8 WSW 10 11 1008.5 - - - - - - - - -
21/03:00pm 30.9 WSW 10 11 1008.7 - - - - - - - - -
21/02:30pm 30.8 WSW 9 11 1009.1 - - - - - - - - -

Other Formats:

Comma delimited format used in spreadsheet applications
http://www.bom.gov.au/fwo/IDD60701/IDD60701.94103.axf

JavaScript Object Notation format (JSON) in row-major order
http://www.bom.gov.au/fwo/IDD60701/IDD60701.94103.json